createdAt,value
2022-12-09T00:02:06.300Z,94902.41
2022-12-09T00:04:34.819Z,94897.00
2022-12-09T00:07:02.670Z,94893.72
2022-12-09T00:09:32.023Z,94856.44
2022-12-09T00:11:59.769Z,94902.53
2022-12-09T00:14:27.583Z,94863.53
2022-12-09T00:16:55.374Z,94855.44
2022-12-09T00:19:23.177Z,94865.28
2022-12-09T00:21:51.084Z,94753.03
2022-12-09T00:24:19.010Z,94879.53
2022-12-09T00:26:48.311Z,94898.53
2022-12-09T00:29:16.210Z,94877.88
2022-12-09T00:31:45.283Z,94760.34
2022-12-09T00:34:14.191Z,94872.00
2022-12-09T00:36:42.021Z,94849.72
2022-12-09T00:39:13.259Z,94845.88
2022-12-09T00:41:41.076Z,94864.78
2022-12-09T00:44:11.371Z,94844.63
2022-12-09T00:46:39.224Z,94834.97
2022-12-09T00:49:07.467Z,94828.22
2022-12-09T00:51:35.282Z,94722.94
2022-12-09T00:54:03.351Z,94836.59
2022-12-09T00:56:32.002Z,94832.75
2022-12-09T00:59:01.306Z,94833.53
2022-12-09T01:01:30.902Z,94820.28
2022-12-09T01:03:59.317Z,94827.72
2022-12-09T01:06:28.133Z,94822.09
2022-12-09T01:08:55.995Z,94820.53
2022-12-09T01:11:26.717Z,94819.25
2022-12-09T01:13:57.733Z,94812.31
2022-12-09T01:16:27.807Z,94831.31
2022-12-09T01:18:59.634Z,94844.81
2022-12-09T01:21:27.979Z,94836.63
2022-12-09T01:23:56.466Z,94827.84
2022-12-09T01:26:24.378Z,94826.81
2022-12-09T01:28:52.956Z,94813.75
2022-12-09T01:31:23.486Z,94831.78
2022-12-09T01:33:51.306Z,94719.41
2022-12-09T01:36:22.756Z,94820.59
2022-12-09T01:38:51.106Z,94824.50
2022-12-09T01:41:20.670Z,94799.44
2022-12-09T01:44:14.244Z,94817.97
2022-12-09T01:46:42.826Z,94823.28
2022-12-09T01:49:13.911Z,94788.56
2022-12-09T01:51:45.169Z,94808.22
2022-12-09T01:54:15.625Z,94768.41
2022-12-09T01:56:45.060Z,94779.28
2022-12-09T01:59:15.213Z,94790.94
2022-12-09T02:01:45.760Z,94788.56
2022-12-09T02:04:13.646Z,94786.31
2022-12-09T02:06:43.509Z,94780.59
2022-12-09T02:09:13.024Z,94762.53
2022-12-09T02:11:59.169Z,94795.84
2022-12-09T02:14:32.629Z,94781.16
2022-12-09T02:17:18.227Z,94761.56
2022-12-09T02:20:01.447Z,94741.31
2022-12-09T02:22:36.270Z,94774.69
2022-12-09T02:25:13.970Z,94737.09
2022-12-09T02:27:49.651Z,94740.13
2022-12-09T02:30:21.296Z,94758.28
2022-12-09T02:33:21.276Z,94766.31
2022-12-09T02:35:55.912Z,94754.22
2022-12-09T02:38:28.854Z,94741.81
2022-12-09T02:41:02.055Z,94767.34
2022-12-09T02:43:34.170Z,94776.38
2022-12-09T02:46:03.583Z,94765.41
2022-12-09T02:48:35.046Z,94750.31
2022-12-09T02:51:07.402Z,94747.59
2022-12-09T02:53:37.431Z,94647.78
2022-12-09T02:56:07.709Z,94745.31
2022-12-09T02:58:35.961Z,94742.06
2022-12-09T03:01:04.507Z,94751.81
2022-12-09T03:03:35.143Z,94736.53
2022-12-09T03:06:10.500Z,94730.56
2022-12-09T03:08:46.634Z,94712.53
2022-12-09T03:11:18.108Z,94713.97
2022-12-09T03:13:56.675Z,94718.66
2022-12-09T03:16:31.260Z,94721.03
2022-12-09T03:19:04.638Z,94700.16
2022-12-09T03:21:37.737Z,94726.63
2022-12-09T03:24:09.685Z,94662.97
2022-12-09T03:26:39.593Z,94725.47
2022-12-09T03:29:15.021Z,94721.16
2022-12-09T03:31:44.318Z,94722.31
2022-12-09T03:34:17.108Z,94720.41
2022-12-09T03:36:49.224Z,94684.38
2022-12-09T03:39:22.439Z,94625.16
2022-12-09T03:41:54.289Z,94704.84
2022-12-09T03:44:27.723Z,94709.53
2022-12-09T03:46:55.775Z,94708.09
2022-12-09T03:49:24.235Z,94679.22
2022-12-09T03:51:58.543Z,94694.03
2022-12-09T03:54:29.766Z,94696.06
2022-12-09T03:56:59.467Z,94669.09
2022-12-09T03:59:32.302Z,94677.50
2022-12-09T04:02:00.325Z,94691.38
2022-12-09T04:04:29.003Z,94678.44
2022-12-09T04:06:58.784Z,94674.63
2022-12-09T04:09:27.025Z,94683.69
2022-12-09T04:11:54.808Z,94691.09
2022-12-09T04:14:22.531Z,94591.00
2022-12-09T04:16:50.254Z,94689.41
2022-12-09T04:19:18.294Z,94665.88
2022-12-09T04:21:46.100Z,94673.81
2022-12-09T04:24:15.479Z,94668.66
2022-12-09T04:26:43.297Z,94649.50
2022-12-09T04:29:11.460Z,94668.44
2022-12-09T04:31:39.699Z,94659.41
2022-12-09T04:34:09.861Z,94652.50
2022-12-09T04:36:38.235Z,94662.47
2022-12-09T04:39:06.860Z,94649.31
2022-12-09T04:41:36.844Z,94639.69
2022-12-09T04:44:05.719Z,94625.25
2022-12-09T04:46:34.113Z,94624.69
2022-12-09T04:49:02.088Z,94629.38
2022-12-09T04:51:35.776Z,94632.22
2022-12-09T04:54:07.344Z,94637.41
2022-12-09T04:56:36.553Z,94638.63
2022-12-09T04:59:05.735Z,94641.56
2022-12-09T05:01:33.925Z,94635.69
2022-12-09T05:04:02.226Z,94625.50
2022-12-09T05:06:30.397Z,94626.66
2022-12-09T05:08:58.702Z,94634.97
2022-12-09T05:11:26.983Z,94636.63
2022-12-09T05:13:56.661Z,94628.38
2022-12-09T05:16:24.844Z,94629.25
2022-12-09T05:18:53.170Z,94625.09
2022-12-09T05:21:22.629Z,94627.22
2022-12-09T05:23:51.112Z,94630.91
2022-12-09T05:26:21.281Z,94618.19
2022-12-09T05:28:51.173Z,94591.78
2022-12-09T05:31:22.948Z,94614.50
2022-12-09T05:33:52.592Z,94607.53
2022-12-09T05:36:24.377Z,94604.94
2022-12-09T05:38:52.789Z,94612.38
2022-12-09T05:41:22.254Z,94608.25
2022-12-09T05:43:50.590Z,94604.88
2022-12-09T05:46:22.629Z,94556.91
2022-12-09T05:48:50.856Z,94591.22
2022-12-09T05:51:23.857Z,94625.66
2022-12-09T05:53:51.830Z,94594.59
2022-12-09T05:56:23.324Z,94543.13
2022-12-09T05:58:52.194Z,94501.84
2022-12-09T06:01:20.831Z,94590.75
2022-12-09T06:03:51.086Z,94582.56
2022-12-09T06:06:21.784Z,94577.41
2022-12-09T06:08:50.185Z,94585.41
2022-12-09T06:11:19.777Z,94598.09
2022-12-09T06:13:49.190Z,94588.28
2022-12-09T06:16:19.152Z,94589.03
2022-12-09T06:18:53.105Z,94590.28
2022-12-09T06:21:22.786Z,94592.91
2022-12-09T06:23:51.695Z,94586.72
2022-12-09T06:26:22.307Z,94580.53
2022-12-09T06:28:50.384Z,94568.25
2022-12-09T06:31:18.970Z,94567.72
2022-12-09T06:33:57.100Z,94563.88
2022-12-09T06:36:29.165Z,94565.06
2022-12-09T06:39:01.828Z,94568.91
2022-12-09T06:41:33.987Z,94569.06
2022-12-09T06:44:02.691Z,94562.38
2022-12-09T06:46:30.717Z,94554.38
2022-12-09T06:48:59.419Z,94561.59
2022-12-09T06:51:28.793Z,94564.09
2022-12-09T06:53:58.730Z,94557.50
2022-12-09T06:56:27.611Z,94563.03
2022-12-09T06:58:55.574Z,94558.03
2022-12-09T07:01:25.483Z,94546.59
2022-12-09T07:03:55.931Z,94527.94
2022-12-09T07:06:30.999Z,94540.03
2022-12-09T07:09:01.022Z,94537.22
2022-12-09T07:11:29.540Z,94550.81
2022-12-09T07:13:58.314Z,94542.94
2022-12-09T07:16:26.825Z,94567.19
2022-12-09T07:18:55.430Z,94563.50
2022-12-09T07:21:24.822Z,94573.16
2022-12-09T07:23:54.690Z,94570.78
2022-12-09T07:26:22.860Z,94572.13
2022-12-09T07:28:51.342Z,94566.13
2022-12-09T07:31:21.350Z,94572.97
2022-12-09T07:33:52.758Z,94575.13
2022-12-09T07:36:22.392Z,94556.16
2022-12-09T07:38:50.440Z,94545.53
2022-12-09T07:41:20.224Z,94533.84
2022-12-09T07:43:49.132Z,94543.81
2022-12-09T07:46:19.444Z,94540.69
2022-12-09T07:48:49.169Z,94536.06
2022-12-09T07:51:17.820Z,94542.44
2022-12-09T07:53:46.895Z,94541.66
2022-12-09T07:56:16.949Z,94536.47
2022-12-09T07:58:48.085Z,94538.28
2022-12-09T08:01:18.875Z,94538.41
2022-12-09T08:03:48.540Z,94531.91
2022-12-09T08:06:19.526Z,94534.31
2022-12-09T08:08:48.458Z,94539.97
2022-12-09T08:11:18.573Z,94546.00
2022-12-09T08:13:49.020Z,94541.88
2022-12-09T08:16:19.618Z,94530.38
2022-12-09T08:18:48.799Z,94534.00
2022-12-09T08:21:19.696Z,94529.09
2022-12-09T08:23:48.033Z,94495.84
2022-12-09T08:26:17.751Z,94508.06
2022-12-09T08:28:47.645Z,94523.25
2022-12-09T08:31:17.694Z,94525.44
2022-12-09T08:33:45.989Z,94521.78
2022-12-09T08:36:15.863Z,94519.72
2022-12-09T08:38:44.835Z,94528.59
2022-12-09T08:41:14.987Z,94513.59
2022-12-09T08:43:44.341Z,94521.31
2022-12-09T08:46:14.597Z,94526.50
2022-12-09T08:48:43.730Z,94516.31
2022-12-09T08:51:13.202Z,94499.56
2022-12-09T08:53:41.564Z,94508.81
2022-12-09T08:56:11.859Z,94509.31
2022-12-09T08:58:40.499Z,94506.78
2022-12-09T09:01:09.720Z,94493.22
2022-12-09T09:03:39.314Z,94502.88
2022-12-09T09:06:10.856Z,94502.13
2022-12-09T09:08:39.695Z,94506.53
2022-12-09T09:11:11.521Z,94512.22
2022-12-09T09:13:40.152Z,94508.63
2022-12-09T09:16:11.412Z,94513.03
2022-12-09T09:18:41.316Z,94521.13
2022-12-09T09:21:11.108Z,94521.56
2022-12-09T09:23:39.544Z,94522.16
2022-12-09T09:26:10.929Z,94525.16
2022-12-09T09:28:38.679Z,94505.25
2022-12-09T09:31:09.402Z,94506.19
2022-12-09T09:33:38.021Z,94510.97
2022-12-09T09:36:10.690Z,94514.91
2022-12-09T09:38:40.268Z,94518.47
2022-12-09T09:41:18.047Z,94516.38
2022-12-09T09:43:46.459Z,94520.03
2022-12-09T09:46:21.669Z,94497.28
2022-12-09T09:48:52.786Z,94496.00
2022-12-09T09:51:22.806Z,94479.66
2022-12-09T09:53:53.366Z,94488.50
2022-12-09T09:56:28.495Z,94473.00
2022-12-09T09:59:06.651Z,94476.84
2022-12-09T10:01:37.869Z,94465.16
2022-12-09T10:04:14.239Z,94460.31
2022-12-09T10:06:48.966Z,94460.53
2022-12-09T10:09:22.865Z,94455.88
2022-12-09T10:12:04.545Z,94448.56
2022-12-09T10:14:45.538Z,94447.13
2022-12-09T10:17:26.123Z,94449.66
2022-12-09T10:19:58.401Z,94448.69
2022-12-09T10:22:31.431Z,94429.66
2022-12-09T10:25:04.412Z,94449.59
2022-12-09T10:27:37.375Z,94451.22
2022-12-09T10:30:10.338Z,94452.53
2022-12-09T10:32:39.513Z,94449.72
2022-12-09T10:35:16.408Z,94447.59
2022-12-09T10:37:45.989Z,94437.56
2022-12-09T10:40:23.914Z,94431.78
2022-12-09T10:43:12.508Z,94441.38
2022-12-09T10:46:15.768Z,94440.84
2022-12-09T10:48:38.533Z,94432.59
2022-12-09T10:51:13.568Z,94437.00
2022-12-09T10:53:48.873Z,94435.22
2022-12-09T10:56:23.458Z,94435.75
2022-12-09T10:59:08.981Z,94431.06
2022-12-09T11:01:50.701Z,94424.25
2022-12-09T11:04:25.194Z,94412.84
2022-12-09T11:06:59.452Z,94398.44
2022-12-09T11:09:32.172Z,94410.16
2022-12-09T11:12:02.096Z,94403.16
2022-12-09T11:14:35.747Z,94399.75
2022-12-09T11:17:14.773Z,94386.28
2022-12-09T11:19:45.427Z,94383.97
2022-12-09T11:22:16.052Z,94382.41
2022-12-09T11:24:45.805Z,94370.19
2022-12-09T11:27:27.402Z,94368.16
2022-12-09T11:30:12.859Z,94368.41
2022-12-09T11:32:56.662Z,94360.34
2022-12-09T11:35:31.277Z,94360.94
2022-12-09T11:38:03.233Z,94358.81
2022-12-09T11:40:33.970Z,94360.34
2022-12-09T11:43:01.954Z,94352.28
2022-12-09T11:45:32.336Z,94358.03
2022-12-09T11:48:27.546Z,94354.41
2022-12-09T11:50:56.757Z,94352.28
2022-12-09T11:53:29.427Z,94339.31
2022-12-09T11:56:03.930Z,94349.19
2022-12-09T11:58:38.907Z,94339.06
2022-12-09T12:01:12.695Z,94346.09
2022-12-09T12:03:47.251Z,94343.00
2022-12-09T12:06:22.609Z,94339.88
2022-12-09T12:08:54.949Z,94343.78
2022-12-09T12:11:29.503Z,94332.91
2022-12-09T12:14:04.981Z,94326.38
2022-12-09T12:16:40.308Z,94336.25
2022-12-09T12:19:15.753Z,94337.59
2022-12-09T12:21:57.043Z,94331.59
2022-12-09T12:24:38.547Z,94321.22
2022-12-09T12:27:24.774Z,94332.88
2022-12-09T12:30:00.389Z,94327.41
2022-12-09T12:33:11.786Z,94333.69
2022-12-09T12:35:57.916Z,94326.19
2022-12-09T12:38:37.012Z,94306.16
2022-12-09T12:41:13.018Z,94324.84
2022-12-09T12:44:14.583Z,94316.78
2022-12-09T12:46:54.979Z,94321.69
2022-12-09T12:49:42.924Z,94334.72
2022-12-09T12:52:54.434Z,94328.44
2022-12-09T12:55:22.677Z,94330.03
2022-12-09T12:57:58.552Z,94331.34
2022-12-09T13:00:36.356Z,94301.22
2022-12-09T13:03:18.943Z,94327.47
2022-12-09T13:05:50.022Z,94322.25
2022-12-09T13:08:24.219Z,94327.69
2022-12-09T13:10:54.947Z,94318.63
2022-12-09T13:13:28.263Z,94317.09
2022-12-09T13:16:01.094Z,94314.22
2022-12-09T13:18:31.520Z,94318.09
2022-12-09T13:21:01.090Z,94311.31
2022-12-09T13:23:40.926Z,94288.72
2022-12-09T13:26:23.466Z,94311.31
2022-12-09T13:28:58.554Z,94298.34
2022-12-09T13:31:30.945Z,94293.13
2022-12-09T13:34:09.487Z,94283.97
2022-12-09T13:36:41.553Z,94307.13
2022-12-09T13:39:12.074Z,94309.47
2022-12-09T13:42:11.040Z,94314.16
2022-12-09T13:44:39.891Z,94319.84
2022-12-09T13:47:17.198Z,94316.22
2022-12-09T13:49:54.686Z,94310.75
2022-12-09T13:52:41.215Z,94315.94
2022-12-09T13:55:20.569Z,94319.84
2022-12-09T13:57:54.944Z,94312.31
2022-12-09T14:00:22.827Z,94298.25
2022-12-09T14:02:59.593Z,94307.94
2022-12-09T14:05:32.045Z,94328.22
2022-12-09T14:08:04.643Z,94321.69
2022-12-09T14:10:38.212Z,94325.09
2022-12-09T14:13:23.569Z,94318.59
2022-12-09T14:16:17.047Z,94327.88
2022-12-09T14:18:46.313Z,94324.25
2022-12-09T14:21:26.941Z,94336.19
2022-12-09T14:24:31.248Z,94344.47
2022-12-09T14:27:16.633Z,94296.94
2022-12-09T14:29:46.805Z,94341.38
2022-12-09T14:32:32.983Z,94344.72
2022-12-09T14:35:17.002Z,94347.31
2022-12-09T14:38:05.033Z,94347.31
2022-12-09T14:40:53.305Z,94338.53
2022-12-09T14:43:38.018Z,94344.50
2022-12-09T14:46:08.535Z,94342.94
2022-12-09T14:48:39.108Z,94349.16
2022-12-09T14:51:16.639Z,94342.88
2022-12-09T14:53:47.635Z,94342.41
2022-12-09T14:56:18.736Z,94357.75
2022-12-09T14:58:50.384Z,94340.34
2022-12-09T15:01:19.126Z,94356.19
2022-12-09T15:03:53.784Z,94357.47
2022-12-09T15:06:26.566Z,94357.69
2022-12-09T15:08:59.350Z,94367.56
2022-12-09T15:11:31.381Z,94367.31
2022-12-09T15:14:23.407Z,94370.94
2022-12-09T15:16:52.148Z,94351.16
2022-12-09T15:19:51.602Z,94376.06
2022-12-09T15:22:21.418Z,94386.47
2022-12-09T15:24:51.019Z,94382.09
2022-12-09T15:27:20.644Z,94380.00
2022-12-09T15:29:48.344Z,94374.81
2022-12-09T15:32:22.203Z,94372.75
2022-12-09T15:34:49.877Z,94373.00
2022-12-09T15:37:21.081Z,94367.03
2022-12-09T15:39:53.099Z,94375.31
2022-12-09T15:42:27.165Z,94373.78
2022-12-09T15:45:01.563Z,94379.19
2022-12-09T15:47:34.475Z,94353.47
2022-12-09T15:50:08.473Z,94365.47
2022-12-09T15:52:42.294Z,94375.56
2022-12-09T15:55:15.518Z,94366.78
2022-12-09T15:57:44.738Z,94379.50
2022-12-09T16:00:13.737Z,94374.31
2022-12-09T16:02:42.131Z,94379.50
2022-12-09T16:05:11.403Z,94383.41
2022-12-09T16:07:53.033Z,94382.88
2022-12-09T16:10:26.505Z,94388.59
2022-12-09T16:13:09.838Z,94390.66
2022-12-09T16:15:44.893Z,94396.88
2022-12-09T16:18:18.174Z,94396.09
2022-12-09T16:20:58.357Z,94408.84
2022-12-09T16:23:28.650Z,94393.78
2022-12-09T16:26:06.355Z,94384.44
2022-12-09T16:28:34.774Z,94381.06
2022-12-09T16:31:05.484Z,94393.25
2022-12-09T16:33:38.606Z,94396.84
2022-12-09T16:36:10.012Z,94399.72
2022-12-09T16:38:39.223Z,94403.13
2022-12-09T16:41:10.821Z,94396.38
2022-12-09T16:43:54.535Z,94391.66
2022-12-09T16:46:40.718Z,94402.59
2022-12-09T16:49:08.706Z,94412.44
2022-12-09T16:51:38.835Z,94406.22
2022-12-09T16:54:20.154Z,94411.94
2022-12-09T16:56:48.880Z,94417.34
2022-12-09T16:59:16.878Z,94423.81
2022-12-09T17:01:45.132Z,94412.69
2022-12-09T17:04:16.478Z,94421.78
2022-12-09T17:06:44.855Z,94421.78
2022-12-09T17:09:14.382Z,94421.00
2022-12-09T17:11:48.534Z,94416.59
2022-12-09T17:14:17.284Z,94439.94
2022-12-09T17:16:45.395Z,94445.13
2022-12-09T17:19:13.873Z,94447.22
2022-12-09T17:21:41.580Z,94438.13
2022-12-09T17:24:11.507Z,94435.00
2022-12-09T17:26:40.719Z,94447.16
2022-12-09T17:29:08.412Z,94439.44
2022-12-09T17:31:36.169Z,94447.75
2022-12-09T17:34:04.906Z,94442.31
2022-12-09T17:36:32.613Z,94412.84
2022-12-09T17:39:01.560Z,94453.16
2022-12-09T17:41:29.465Z,94421.59
2022-12-09T17:44:00.306Z,94463.38
2022-12-09T17:46:28.215Z,94465.41
2022-12-09T17:48:55.930Z,94460.66
2022-12-09T17:51:24.224Z,94468.50
2022-12-09T17:53:51.909Z,94480.69
2022-12-09T17:56:21.751Z,94475.75
2022-12-09T17:58:55.925Z,94473.19
2022-12-09T18:01:26.084Z,94477.84
2022-12-09T18:04:01.336Z,94482.34
2022-12-09T18:06:34.042Z,94493.50
2022-12-09T18:09:02.544Z,94491.66
2022-12-09T18:11:31.311Z,94494.81
2022-12-09T18:13:59.255Z,94491.34
2022-12-09T18:16:30.177Z,94495.25
2022-12-09T18:19:02.499Z,94501.25
2022-12-09T18:21:30.282Z,94504.38
2022-12-09T18:23:57.969Z,94509.22
2022-12-09T18:26:30.528Z,94515.75
2022-12-09T18:29:00.110Z,94513.72
2022-12-09T18:31:29.715Z,94514.16
2022-12-09T18:33:57.563Z,94519.38
2022-12-09T18:36:27.387Z,94521.16
2022-12-09T18:38:55.377Z,94518.09
2022-12-09T18:41:25.310Z,94510.09
2022-12-09T18:43:54.831Z,94518.31
2022-12-09T18:46:25.994Z,94519.81
2022-12-09T18:48:58.341Z,94528.19
2022-12-09T18:51:26.595Z,94529.81
2022-12-09T18:53:54.620Z,94504.25
2022-12-09T18:56:22.313Z,94527.22
2022-12-09T18:59:05.837Z,94529.81
2022-12-09T19:01:38.918Z,94520.47
2022-12-09T19:04:11.435Z,94519.13
2022-12-09T19:06:40.977Z,94504.75
2022-12-09T19:09:11.401Z,94512.91
2022-12-09T19:11:40.727Z,94515.50
2022-12-09T19:14:09.433Z,94511.06
2022-12-09T19:16:37.113Z,94504.91
2022-12-09T19:19:09.708Z,94485.41
2022-12-09T19:21:40.028Z,94488.81
2022-12-09T19:24:09.189Z,94488.75
2022-12-09T19:26:37.657Z,94493.16
2022-12-09T19:29:08.625Z,94506.97
2022-12-09T19:31:38.098Z,94500.13
2022-12-09T19:34:08.158Z,94538.88
2022-12-09T19:36:36.210Z,94546.88
2022-12-09T19:39:08.165Z,94536.28
2022-12-09T19:41:40.323Z,94533.91
2022-12-09T19:44:08.951Z,94533.25
2022-12-09T19:46:38.293Z,94532.94
2022-12-09T19:49:06.102Z,94538.41
2022-12-09T19:51:34.150Z,94544.84
2022-12-09T19:54:02.532Z,94544.03
2022-12-09T19:56:31.603Z,94550.09
2022-12-09T19:59:00.616Z,94541.25
2022-12-09T20:01:32.269Z,94543.34
2022-12-09T20:04:19.007Z,94499.56
2022-12-09T20:06:51.351Z,94530.56
2022-12-09T20:09:24.269Z,94535.53
2022-12-09T20:11:54.120Z,94516.84
2022-12-09T20:14:21.918Z,94528.03
2022-12-09T20:16:49.678Z,94529.28
2022-12-09T20:19:18.057Z,94543.31
2022-12-09T20:21:45.778Z,94529.75
2022-12-09T20:24:13.444Z,94549.78
2022-12-09T20:26:41.253Z,94562.31
2022-12-09T20:29:11.905Z,94568.81
2022-12-09T20:31:40.385Z,94567.22
2022-12-09T20:34:12.689Z,94563.63
2022-12-09T20:36:42.577Z,94534.94
2022-12-09T20:39:14.851Z,94548.06
2022-12-09T20:41:44.319Z,94534.59
2022-12-09T20:44:14.872Z,94552.22
2022-12-09T20:46:46.537Z,94542.31
2022-12-09T20:49:14.309Z,94554.25
2022-12-09T20:51:45.034Z,94537.69
2022-12-09T20:54:13.598Z,94546.75
2022-12-09T20:56:42.004Z,94555.34
2022-12-09T20:59:11.189Z,94539.22
2022-12-09T21:01:40.824Z,94563.34
2022-12-09T21:04:08.705Z,94558.97
2022-12-09T21:06:38.521Z,94568.59
2022-12-09T21:09:09.504Z,94570.91
2022-12-09T21:11:37.725Z,94575.81
2022-12-09T21:14:07.190Z,94577.38
2022-12-09T21:16:37.965Z,94571.22
2022-12-09T21:19:10.259Z,94586.50
2022-12-09T21:21:40.184Z,94575.00
2022-12-09T21:24:10.219Z,94579.44
2022-12-09T21:26:39.366Z,94570.59
2022-12-09T21:29:07.216Z,94567.22
2022-12-09T21:31:37.367Z,94574.00
2022-12-09T21:34:07.397Z,94572.78
2022-12-09T21:36:37.052Z,94578.72
2022-12-09T21:39:05.539Z,94569.34
2022-12-09T21:41:36.423Z,94577.13
2022-12-09T21:44:04.757Z,94575.00
2022-12-09T21:46:34.289Z,94582.56
2022-12-09T21:49:04.392Z,94585.94
2022-12-09T21:51:34.670Z,94589.06
2022-12-09T21:54:08.067Z,94586.22
2022-12-09T21:56:36.922Z,94581.00
2022-12-09T21:59:07.311Z,94579.72
2022-12-09T22:01:40.750Z,94574.97
2022-12-09T22:04:10.582Z,94581.50
2022-12-09T22:06:40.260Z,94574.44
2022-12-09T22:09:08.920Z,94594.47
2022-12-09T22:11:38.494Z,94603.81
2022-12-09T22:14:09.290Z,94583.00
2022-12-09T22:16:39.271Z,94589.28
2022-12-09T22:19:09.119Z,94586.91
2022-12-09T22:21:37.650Z,94589.56
2022-12-09T22:24:10.258Z,94589.84
2022-12-09T22:26:38.192Z,94586.22
2022-12-09T22:29:07.153Z,94587.50
2022-12-09T22:31:38.048Z,94590.63
2022-12-09T22:34:08.985Z,94576.00
2022-12-09T22:36:37.093Z,94578.47
2022-12-09T22:39:07.753Z,94577.16
2022-12-09T22:41:36.203Z,94576.34
2022-12-09T22:44:05.078Z,94566.75
2022-12-09T22:46:34.703Z,94540.72
2022-12-09T22:49:04.581Z,94562.84
2022-12-09T22:51:34.266Z,94564.69
2022-12-09T22:54:04.180Z,94555.84
2022-12-09T22:56:33.777Z,94564.41
2022-12-09T22:59:01.845Z,94571.44
2022-12-09T23:01:32.835Z,94570.91
2022-12-09T23:04:01.655Z,94570.41
2022-12-09T23:06:30.807Z,94574.03
2022-12-09T23:08:58.857Z,94574.59
2022-12-09T23:11:29.062Z,94566.03
2022-12-09T23:13:59.968Z,94566.31
2022-12-09T23:16:28.573Z,94572.00
2022-12-09T23:18:57.550Z,94593.09
2022-12-09T23:21:27.149Z,94594.59
2022-12-09T23:23:56.225Z,94602.06
2022-12-09T23:26:25.598Z,94609.53
2022-12-09T23:28:56.391Z,94612.94
2022-12-09T23:31:28.252Z,94597.56
2022-12-09T23:33:56.857Z,94611.94
2022-12-09T23:36:26.850Z,94603.94
2022-12-09T23:38:55.322Z,94582.63
2022-12-09T23:41:24.930Z,94579.03
2022-12-09T23:43:53.430Z,94579.78
2022-12-09T23:46:23.397Z,94579.25
2022-12-09T23:48:53.585Z,94575.59
2022-12-09T23:51:23.138Z,94585.22
2022-12-09T23:53:52.852Z,94594.56
2022-12-09T23:56:22.798Z,94602.72
2022-12-09T23:58:54.628Z,94606.53
